createdAt,value
2022-11-23T00:00:29.611Z,0.41
2022-11-23T00:10:35.308Z,0.39
2022-11-23T00:20:42.939Z,0.35
2022-11-23T00:30:52.308Z,0.27
2022-11-23T00:41:02.510Z,0.22
2022-11-23T00:51:11.238Z,0.16
2022-11-23T01:01:18.363Z,0.11
2022-11-23T01:11:25.361Z,0.10
2022-11-23T01:21:31.057Z,0.11
2022-11-23T01:31:40.526Z,0.10
2022-11-23T01:41:48.783Z,0.09
2022-11-23T01:51:58.932Z,0.06
2022-11-23T02:02:05.538Z,0.06
2022-11-23T02:12:13.733Z,0.06
2022-11-23T02:22:27.821Z,0.01
2022-11-23T02:32:35.564Z,-0.01
2022-11-23T02:42:41.906Z,0.00
2022-11-23T02:52:47.504Z,0.00
2022-11-23T03:02:53.059Z,0.03
2022-11-23T03:12:59.143Z,0.04
2022-11-23T03:23:04.665Z,0.01
2022-11-23T03:33:10.276Z,0.02
2022-11-23T03:43:16.323Z,0.01
2022-11-23T03:53:22.085Z,-0.10
2022-11-23T04:03:27.803Z,-0.16
2022-11-23T04:13:33.414Z,-0.20
2022-11-23T04:23:39.455Z,-0.19
2022-11-23T04:33:45.185Z,-0.16
2022-11-23T04:43:51.855Z,-0.18
2022-11-23T04:53:57.433Z,-0.20
2022-11-23T05:04:03.101Z,-0.24
2022-11-23T05:14:08.756Z,-0.35
2022-11-23T05:24:14.677Z,-0.39
2022-11-23T05:34:20.504Z,-0.44
2022-11-23T05:44:26.099Z,-0.46
2022-11-23T05:54:31.723Z,-0.51
2022-11-23T06:04:37.309Z,-0.56
2022-11-23T06:14:43.065Z,-0.66
2022-11-23T06:24:48.652Z,-0.81
2022-11-23T06:34:59.368Z,-0.89
2022-11-23T06:45:08.133Z,-0.98
2022-11-23T06:55:13.746Z,-1.04
2022-11-23T07:05:19.515Z,-1.05
2022-11-23T07:15:25.113Z,-0.96
2022-11-23T07:25:31.143Z,-0.87
2022-11-23T07:35:37.603Z,-0.87
2022-11-23T07:45:41.914Z,-0.76
2022-11-23T07:55:47.953Z,-0.72
2022-11-23T08:05:53.682Z,-0.68
2022-11-23T08:15:59.284Z,-0.59
2022-11-23T08:26:12.012Z,-0.48
2022-11-23T08:36:20.336Z,-0.40
2022-11-23T08:46:25.878Z,-0.24
2022-11-23T08:56:31.508Z,-0.04
2022-11-23T09:06:37.413Z,0.06
2022-11-23T09:16:42.972Z,0.23
2022-11-23T09:26:48.897Z,0.42
2022-11-23T09:36:54.466Z,0.65
2022-11-23T09:47:17.417Z,0.96
2022-11-23T09:57:26.213Z,1.36
2022-11-23T10:07:48.417Z,1.66
2022-11-23T10:18:15.202Z,2.44
2022-11-23T10:28:24.028Z,3.00
2022-11-23T10:38:30.421Z,3.48
2022-11-23T10:48:38.100Z,3.67
2022-11-23T10:58:47.278Z,3.58
2022-11-23T11:08:55.515Z,3.46
2022-11-23T11:19:01.746Z,3.34
2022-11-23T11:29:10.010Z,3.30
2022-11-23T11:39:21.775Z,3.42
2022-11-23T11:49:31.456Z,3.43
2022-11-23T11:59:43.712Z,3.39
2022-11-23T12:09:52.058Z,3.38
2022-11-23T12:20:06.696Z,3.74
2022-11-23T12:30:26.205Z,3.62
2022-11-23T12:40:58.196Z,3.20
2022-11-23T12:51:14.781Z,2.94
2022-11-23T13:01:30.601Z,2.65
2022-11-23T13:11:58.450Z,2.44
2022-11-23T13:22:07.129Z,2.20
2022-11-23T13:32:47.955Z,1.99
2022-11-23T13:42:55.435Z,1.68
2022-11-23T13:52:59.583Z,1.42
2022-11-23T14:03:39.823Z,1.24
2022-11-23T14:13:52.935Z,1.02
2022-11-23T14:24:38.899Z,0.90
2022-11-23T14:34:55.684Z,0.76
2022-11-23T14:45:14.315Z,0.60
2022-11-23T14:55:22.733Z,0.60
2022-11-23T15:05:32.272Z,0.58
2022-11-23T15:15:39.650Z,0.46
2022-11-23T15:25:54.783Z,0.39
2022-11-23T15:36:00.452Z,0.38
2022-11-23T15:46:14.394Z,0.35
2022-11-23T15:56:28.289Z,0.36
2022-11-23T16:06:41.461Z,0.30
2022-11-23T16:16:49.242Z,0.24
2022-11-23T16:26:55.151Z,0.16
2022-11-23T16:37:03.963Z,0.10
2022-11-23T16:47:28.350Z,0.01
2022-11-23T16:57:36.187Z,-0.13
2022-11-23T17:07:41.846Z,-0.19
2022-11-23T17:17:47.649Z,-0.17
2022-11-23T17:27:53.451Z,-0.24
2022-11-23T17:37:59.078Z,-0.26
2022-11-23T17:48:05.257Z,-0.29
2022-11-23T17:58:12.608Z,-0.34
2022-11-23T18:08:18.218Z,-0.38
2022-11-23T18:18:24.094Z,-0.41
2022-11-23T18:28:30.406Z,-0.44
2022-11-23T18:38:36.897Z,-0.51
2022-11-23T18:48:41.307Z,-0.50
2022-11-23T18:58:48.431Z,-0.50
2022-11-23T19:08:56.890Z,-0.54
2022-11-23T19:19:04.488Z,-0.56
2022-11-23T19:29:10.047Z,-0.54
2022-11-23T19:39:15.730Z,-0.52
2022-11-23T19:49:21.550Z,-0.52
2022-11-23T19:59:27.857Z,-0.51
2022-11-23T20:09:33.915Z,-0.52
2022-11-23T20:19:39.752Z,-0.52
2022-11-23T20:29:45.511Z,-0.51
2022-11-23T20:39:52.949Z,-0.51
2022-11-23T20:49:58.582Z,-0.53
2022-11-23T21:00:04.453Z,-0.51
2022-11-23T21:10:31.297Z,-0.52
2022-11-23T21:20:37.284Z,-0.48
2022-11-23T21:30:43.861Z,-0.50
2022-11-23T21:40:49.647Z,-0.51
2022-11-23T21:51:03.126Z,-0.58
2022-11-23T22:01:12.282Z,-0.66
2022-11-23T22:11:20.440Z,-0.67
2022-11-23T22:21:27.928Z,-0.66
2022-11-23T22:31:34.435Z,-0.74
2022-11-23T22:41:41.093Z,-0.78
2022-11-23T22:51:45.372Z,-0.85
2022-11-23T23:01:51.109Z,-0.90
2022-11-23T23:11:56.808Z,-0.88
2022-11-23T23:22:02.532Z,-0.90
2022-11-23T23:32:08.543Z,-0.90
2022-11-23T23:42:14.343Z,-0.89
2022-11-23T23:52:20.329Z,-0.88
